GMTT

Ibn Batouta Airport

Tangier, Morocco
METAR GMTT 171630Z 03014KT 9999 FEW016CB 26/18 Q1013 NOSIG
Observed Flight Rules
Aug-17 @ 16:30 UTC (21 minutes ago) Visual Flight Rules
Wind Visibility Clouds
30° at 14 knots 10,000+ meters
  • Few at 1,600' AGL
Temperatures Readings
Current 26°C / 79°F
Dewpoint 18°C / 64°F
Humidity 61%
Altimeter 29.91" Hg
Pressure 1013 hPa
Elevation 21
METAR GMTT 171630Z 03014KT 9999 FEW016CB 26/18 Q1013 NOSIG
Observed Flight Rules
Aug-17 @ 16:30 UTC
(21 minutes ago)
VFR
Wind Visibility
30° at 14 knots 10,000+ meters
Clouds
  • Few at 1,600' AGL
Temperature Dewpoint
26°C / 79°F 18°C / 64°F
Humidity Altimeter Pressure
61% 29.91" Hg 1013 hPa